sensor_id;sensor_type;location;lat;lon;timestamp;P1;durP1;ratioP1;P2;durP2;ratioP2
22113;SDS011;11223;49.968;9.062;2023-05-23T00:01:41;18.53;;;16.77;;
22113;SDS011;11223;49.968;9.062;2023-05-23T00:04:07;18.90;;;17.00;;
22113;SDS011;11223;49.968;9.062;2023-05-23T00:06:34;17.95;;;16.15;;
22113;SDS011;11223;49.968;9.062;2023-05-23T00:09:00;19.52;;;17.63;;
22113;SDS011;11223;49.968;9.062;2023-05-23T00:11:26;19.50;;;17.55;;
22113;SDS011;11223;49.968;9.062;2023-05-23T00:13:53;20.08;;;17.95;;
22113;SDS011;11223;49.968;9.062;2023-05-23T00:16:19;18.85;;;17.35;;
22113;SDS011;11223;49.968;9.062;2023-05-23T00:18:45;21.80;;;19.60;;
22113;SDS011;11223;49.968;9.062;2023-05-23T00:21:11;22.40;;;19.97;;
22113;SDS011;11223;49.968;9.062;2023-05-23T00:23:40;22.92;;;20.73;;
22113;SDS011;11223;49.968;9.062;2023-05-23T00:26:07;20.93;;;18.73;;
22113;SDS011;11223;49.968;9.062;2023-05-23T00:28:33;19.08;;;17.27;;
22113;SDS011;11223;49.968;9.062;2023-05-23T00:30:58;22.17;;;19.57;;
22113;SDS011;11223;49.968;9.062;2023-05-23T00:33:24;23.13;;;20.80;;
22113;SDS011;11223;49.968;9.062;2023-05-23T00:35:50;22.87;;;20.53;;
22113;SDS011;11223;49.968;9.062;2023-05-23T00:38:15;22.87;;;20.57;;
22113;SDS011;11223;49.968;9.062;2023-05-23T00:40:41;23.98;;;21.48;;
22113;SDS011;11223;49.968;9.062;2023-05-23T00:43:07;22.27;;;19.73;;
22113;SDS011;11223;49.968;9.062;2023-05-23T00:45:32;23.77;;;21.20;;
22113;SDS011;11223;49.968;9.062;2023-05-23T00:47:58;21.17;;;19.20;;
22113;SDS011;11223;49.968;9.062;2023-05-23T00:50:25;20.17;;;18.20;;
22113;SDS011;11223;49.968;9.062;2023-05-23T00:52:55;20.05;;;18.05;;
22113;SDS011;11223;49.968;9.062;2023-05-23T00:55:23;21.70;;;19.60;;
22113;SDS011;11223;49.968;9.062;2023-05-23T00:57:49;22.05;;;19.42;;
22113;SDS011;11223;49.968;9.062;2023-05-23T01:00:16;22.00;;;19.83;;
22113;SDS011;11223;49.968;9.062;2023-05-23T01:02:44;19.75;;;17.95;;
22113;SDS011;11223;49.968;9.062;2023-05-23T01:05:11;20.63;;;18.73;;
22113;SDS011;11223;49.968;9.062;2023-05-23T01:07:41;24.33;;;19.63;;
22113;SDS011;11223;49.968;9.062;2023-05-23T01:10:13;20.67;;;18.67;;
22113;SDS011;11223;49.968;9.062;2023-05-23T01:15:22;26.63;;;21.73;;
22113;SDS011;11223;49.968;9.062;2023-05-23T01:18:01;22.85;;;20.50;;
22113;SDS011;11223;49.968;9.062;2023-05-23T01:20:35;20.67;;;18.80;;
22113;SDS011;11223;49.968;9.062;2023-05-23T01:26:16;23.45;;;21.23;;
22113;SDS011;11223;49.968;9.062;2023-05-23T01:29:00;22.00;;;19.80;;
22113;SDS011;11223;49.968;9.062;2023-05-23T01:31:35;25.73;;;22.95;;
22113;SDS011;11223;49.968;9.062;2023-05-23T01:34:03;27.20;;;24.27;;
22113;SDS011;11223;49.968;9.062;2023-05-23T01:36:32;27.58;;;24.65;;
22113;SDS011;11223;49.968;9.062;2023-05-23T01:39:05;29.98;;;26.25;;
22113;SDS011;11223;49.968;9.062;2023-05-23T01:41:30;28.45;;;25.48;;
22113;SDS011;11223;49.968;9.062;2023-05-23T01:43:56;26.73;;;23.97;;
22113;SDS011;11223;49.968;9.062;2023-05-23T01:46:22;29.63;;;25.30;;
22113;SDS011;11223;49.968;9.062;2023-05-23T01:48:49;28.83;;;26.00;;
22113;SDS011;11223;49.968;9.062;2023-05-23T01:51:15;26.48;;;23.67;;
22113;SDS011;11223;49.968;9.062;2023-05-23T01:53:41;27.13;;;24.33;;
22113;SDS011;11223;49.968;9.062;2023-05-23T01:56:07;25.20;;;22.50;;
22113;SDS011;11223;49.968;9.062;2023-05-23T01:58:33;25.70;;;23.20;;
22113;SDS011;11223;49.968;9.062;2023-05-23T02:00:58;25.23;;;22.53;;
22113;SDS011;11223;49.968;9.062;2023-05-23T02:03:25;25.63;;;22.92;;
22113;SDS011;11223;49.968;9.062;2023-05-23T02:05:50;25.00;;;22.53;;
22113;SDS011;11223;49.968;9.062;2023-05-23T02:08:16;25.37;;;22.77;;
22113;SDS011;11223;49.968;9.062;2023-05-23T02:10:41;23.63;;;21.20;;
22113;SDS011;11223;49.968;9.062;2023-05-23T02:13:07;23.60;;;21.30;;
22113;SDS011;11223;49.968;9.062;2023-05-23T02:18:16;26.52;;;23.83;;
22113;SDS011;11223;49.968;9.062;2023-05-23T02:20:42;22.97;;;20.77;;
22113;SDS011;11223;49.968;9.062;2023-05-23T02:23:08;27.70;;;24.33;;
22113;SDS011;11223;49.968;9.062;2023-05-23T02:25:34;27.47;;;24.67;;
22113;SDS011;11223;49.968;9.062;2023-05-23T02:27:59;26.17;;;23.60;;
22113;SDS011;11223;49.968;9.062;2023-05-23T02:30:25;26.03;;;23.47;;
22113;SDS011;11223;49.968;9.062;2023-05-23T02:32:50;24.73;;;22.10;;
22113;SDS011;11223;49.968;9.062;2023-05-23T02:35:17;26.17;;;23.38;;
22113;SDS011;11223;49.968;9.062;2023-05-23T02:37:42;23.97;;;21.50;;
22113;SDS011;11223;49.968;9.062;2023-05-23T02:40:08;26.13;;;23.30;;
22113;SDS011;11223;49.968;9.062;2023-05-23T02:42:34;23.85;;;20.95;;
22113;SDS011;11223;49.968;9.062;2023-05-23T02:45:00;25.47;;;21.90;;
22113;SDS011;11223;49.968;9.062;2023-05-23T02:47:25;23.67;;;21.27;;
22113;SDS011;11223;49.968;9.062;2023-05-23T02:49:51;26.23;;;23.50;;
22113;SDS011;11223;49.968;9.062;2023-05-23T02:52:16;25.27;;;22.67;;
22113;SDS011;11223;49.968;9.062;2023-05-23T02:54:42;25.17;;;22.47;;
22113;SDS011;11223;49.968;9.062;2023-05-23T02:57:08;24.77;;;22.27;;
22113;SDS011;11223;49.968;9.062;2023-05-23T02:59:34;25.92;;;23.30;;
22113;SDS011;11223;49.968;9.062;2023-05-23T03:01:59;25.30;;;22.60;;
22113;SDS011;11223;49.968;9.062;2023-05-23T03:04:25;23.57;;;21.30;;
22113;SDS011;11223;49.968;9.062;2023-05-23T03:06:51;24.77;;;22.33;;
22113;SDS011;11223;49.968;9.062;2023-05-23T03:09:18;23.27;;;20.30;;
22113;SDS011;11223;49.968;9.062;2023-05-23T03:11:44;23.37;;;20.90;;
22113;SDS011;11223;49.968;9.062;2023-05-23T03:14:09;26.70;;;23.90;;
22113;SDS011;11223;49.968;9.062;2023-05-23T03:16:35;24.17;;;21.67;;
22113;SDS011;11223;49.968;9.062;2023-05-23T03:19:00;24.17;;;21.77;;
22113;SDS011;11223;49.968;9.062;2023-05-23T03:21:26;27.77;;;23.33;;
22113;SDS011;11223;49.968;9.062;2023-05-23T03:23:51;22.40;;;20.30;;
22113;SDS011;11223;49.968;9.062;2023-05-23T03:26:17;26.90;;;24.03;;
22113;SDS011;11223;49.968;9.062;2023-05-23T03:28:43;23.98;;;21.55;;
22113;SDS011;11223;49.968;9.062;2023-05-23T03:31:09;23.10;;;20.70;;
22113;SDS011;11223;49.968;9.062;2023-05-23T03:33:34;22.40;;;20.00;;
22113;SDS011;11223;49.968;9.062;2023-05-23T03:36:00;24.80;;;19.00;;
22113;SDS011;11223;49.968;9.062;2023-05-23T03:38:26;22.30;;;19.97;;
22113;SDS011;11223;49.968;9.062;2023-05-23T03:40:51;21.27;;;19.10;;
22113;SDS011;11223;49.968;9.062;2023-05-23T03:43:18;23.20;;;20.23;;
22113;SDS011;11223;49.968;9.062;2023-05-23T03:45:43;24.03;;;21.70;;
22113;SDS011;11223;49.968;9.062;2023-05-23T03:48:09;23.40;;;21.10;;
22113;SDS011;11223;49.968;9.062;2023-05-23T03:50:35;22.80;;;20.50;;
22113;SDS011;11223;49.968;9.062;2023-05-23T03:53:00;22.97;;;20.63;;
22113;SDS011;11223;49.968;9.062;2023-05-23T03:55:26;26.00;;;23.40;;
22113;SDS011;11223;49.968;9.062;2023-05-23T03:57:51;23.67;;;21.10;;
22113;SDS011;11223;49.968;9.062;2023-05-23T04:00:17;24.67;;;22.17;;
22113;SDS011;11223;49.968;9.062;2023-05-23T04:02:43;24.23;;;21.60;;
22113;SDS011;11223;49.968;9.062;2023-05-23T04:05:13;26.48;;;23.65;;
22113;SDS011;11223;49.968;9.062;2023-05-23T04:07:39;26.10;;;23.30;;
22113;SDS011;11223;49.968;9.062;2023-05-23T04:10:06;28.85;;;25.80;;
22113;SDS011;11223;49.968;9.062;2023-05-23T04:12:32;27.90;;;25.00;;
22113;SDS011;11223;49.968;9.062;2023-05-23T04:14:58;25.75;;;23.33;;
22113;SDS011;11223;49.968;9.062;2023-05-23T04:17:24;25.10;;;22.70;;
22113;SDS011;11223;49.968;9.062;2023-05-23T04:19:50;26.57;;;23.70;;
22113;SDS011;11223;49.968;9.062;2023-05-23T04:22:15;29.90;;;24.63;;
22113;SDS011;11223;49.968;9.062;2023-05-23T04:24:41;29.07;;;26.13;;
22113;SDS011;11223;49.968;9.062;2023-05-23T04:27:07;29.90;;;27.00;;
22113;SDS011;11223;49.968;9.062;2023-05-23T04:29:35;32.60;;;29.50;;
22113;SDS011;11223;49.968;9.062;2023-05-23T04:32:02;30.00;;;26.95;;
22113;SDS011;11223;49.968;9.062;2023-05-23T04:34:27;32.23;;;28.93;;
22113;SDS011;11223;49.968;9.062;2023-05-23T04:36:54;32.22;;;29.23;;
22113;SDS011;11223;49.968;9.062;2023-05-23T04:39:20;30.57;;;27.37;;
22113;SDS011;11223;49.968;9.062;2023-05-23T04:41:45;33.47;;;29.77;;
22113;SDS011;11223;49.968;9.062;2023-05-23T04:44:11;32.60;;;29.37;;
22113;SDS011;11223;49.968;9.062;2023-05-23T04:46:38;32.88;;;29.40;;
22113;SDS011;11223;49.968;9.062;2023-05-23T04:49:09;29.42;;;26.52;;
22113;SDS011;11223;49.968;9.062;2023-05-23T04:51:34;31.97;;;28.77;;
22113;SDS011;11223;49.968;9.062;2023-05-23T04:54:01;31.20;;;28.27;;
22113;SDS011;11223;49.968;9.062;2023-05-23T04:56:26;29.35;;;26.30;;
22113;SDS011;11223;49.968;9.062;2023-05-23T04:58:53;31.50;;;28.27;;
22113;SDS011;11223;49.968;9.062;2023-05-23T05:01:18;30.77;;;27.70;;
22113;SDS011;11223;49.968;9.062;2023-05-23T05:03:44;29.40;;;26.30;;
22113;SDS011;11223;49.968;9.062;2023-05-23T05:06:11;28.65;;;25.85;;
22113;SDS011;11223;49.968;9.062;2023-05-23T05:08:37;25.85;;;23.35;;
22113;SDS011;11223;49.968;9.062;2023-05-23T05:11:04;27.10;;;24.50;;
22113;SDS011;11223;49.968;9.062;2023-05-23T05:13:30;26.67;;;23.90;;
22113;SDS011;11223;49.968;9.062;2023-05-23T05:15:55;25.50;;;23.00;;
22113;SDS011;11223;49.968;9.062;2023-05-23T05:18:22;30.17;;;27.38;;
22113;SDS011;11223;49.968;9.062;2023-05-23T05:20:49;25.83;;;23.17;;
22113;SDS011;11223;49.968;9.062;2023-05-23T05:23:15;22.37;;;20.20;;
22113;SDS011;11223;49.968;9.062;2023-05-23T05:25:40;23.37;;;20.87;;
22113;SDS011;11223;49.968;9.062;2023-05-23T05:28:06;23.00;;;20.90;;
22113;SDS011;11223;49.968;9.062;2023-05-23T05:30:32;21.30;;;19.20;;
22113;SDS011;11223;49.968;9.062;2023-05-23T05:32:59;22.63;;;20.52;;
22113;SDS011;11223;49.968;9.062;2023-05-23T05:35:27;21.20;;;18.98;;
22113;SDS011;11223;49.968;9.062;2023-05-23T05:37:54;22.00;;;19.90;;
22113;SDS011;11223;49.968;9.062;2023-05-23T05:40:20;20.23;;;18.30;;
22113;SDS011;11223;49.968;9.062;2023-05-23T05:42:46;20.20;;;18.10;;
22113;SDS011;11223;49.968;9.062;2023-05-23T05:45:11;20.10;;;18.07;;
22113;SDS011;11223;49.968;9.062;2023-05-23T05:47:37;19.30;;;17.40;;
22113;SDS011;11223;49.968;9.062;2023-05-23T05:50:06;21.50;;;19.30;;
22113;SDS011;11223;49.968;9.062;2023-05-23T05:52:33;19.38;;;17.38;;
22113;SDS011;11223;49.968;9.062;2023-05-23T05:55:03;19.65;;;17.65;;
22113;SDS011;11223;49.968;9.062;2023-05-23T05:57:30;22.02;;;19.80;;
22113;SDS011;11223;49.968;9.062;2023-05-23T05:59:56;22.70;;;19.80;;
22113;SDS011;11223;49.968;9.062;2023-05-23T06:02:21;20.67;;;18.80;;
22113;SDS011;11223;49.968;9.062;2023-05-23T06:04:47;19.20;;;17.30;;
22113;SDS011;11223;49.968;9.062;2023-05-23T06:07:12;20.80;;;18.80;;
22113;SDS011;11223;49.968;9.062;2023-05-23T06:09:38;23.77;;;21.53;;
22113;SDS011;11223;49.968;9.062;2023-05-23T06:12:04;20.60;;;18.60;;
22113;SDS011;11223;49.968;9.062;2023-05-23T06:14:29;20.10;;;18.07;;
22113;SDS011;11223;49.968;9.062;2023-05-23T06:16:55;20.17;;;18.27;;
22113;SDS011;11223;49.968;9.062;2023-05-23T06:19:20;20.80;;;18.90;;
22113;SDS011;11223;49.968;9.062;2023-05-23T06:21:46;21.73;;;19.53;;
22113;SDS011;11223;49.968;9.062;2023-05-23T06:24:12;20.70;;;17.50;;
22113;SDS011;11223;49.968;9.062;2023-05-23T06:26:37;18.77;;;17.00;;
22113;SDS011;11223;49.968;9.062;2023-05-23T06:29:03;20.27;;;18.30;;
22113;SDS011;11223;49.968;9.062;2023-05-23T06:31:28;22.80;;;20.50;;
22113;SDS011;11223;49.968;9.062;2023-05-23T06:33:54;21.60;;;19.50;;
22113;SDS011;11223;49.968;9.062;2023-05-23T06:36:19;22.27;;;19.13;;
22113;SDS011;11223;49.968;9.062;2023-05-23T06:38:45;21.77;;;19.73;;
22113;SDS011;11223;49.968;9.062;2023-05-23T06:41:11;21.75;;;19.65;;
22113;SDS011;11223;49.968;9.062;2023-05-23T06:43:37;23.37;;;21.07;;
22113;SDS011;11223;49.968;9.062;2023-05-23T06:46:03;23.13;;;20.90;;
22113;SDS011;11223;49.968;9.062;2023-05-23T06:48:29;20.77;;;18.77;;
22113;SDS011;11223;49.968;9.062;2023-05-23T06:50:54;21.13;;;18.93;;
22113;SDS011;11223;49.968;9.062;2023-05-23T06:53:20;21.33;;;19.20;;
22113;SDS011;11223;49.968;9.062;2023-05-23T06:55:45;19.73;;;17.83;;
22113;SDS011;11223;49.968;9.062;2023-05-23T06:58:11;20.43;;;18.30;;
22113;SDS011;11223;49.968;9.062;2023-05-23T07:00:36;19.47;;;17.70;;
22113;SDS011;11223;49.968;9.062;2023-05-23T07:03:02;17.60;;;15.90;;
22113;SDS011;11223;49.968;9.062;2023-05-23T07:05:28;17.92;;;16.20;;
22113;SDS011;11223;49.968;9.062;2023-05-23T07:07:54;19.20;;;17.30;;
22113;SDS011;11223;49.968;9.062;2023-05-23T07:10:20;16.20;;;14.63;;
22113;SDS011;11223;49.968;9.062;2023-05-23T07:12:46;17.50;;;15.90;;
22113;SDS011;11223;49.968;9.062;2023-05-23T07:15:12;17.73;;;16.03;;
22113;SDS011;11223;49.968;9.062;2023-05-23T07:17:39;16.73;;;15.18;;
22113;SDS011;11223;49.968;9.062;2023-05-23T07:20:04;16.50;;;14.80;;
22113;SDS011;11223;49.968;9.062;2023-05-23T07:22:31;17.05;;;15.25;;
22113;SDS011;11223;49.968;9.062;2023-05-23T07:24:56;17.67;;;15.97;;
22113;SDS011;11223;49.968;9.062;2023-05-23T07:27:22;17.20;;;15.50;;
22113;SDS011;11223;49.968;9.062;2023-05-23T07:29:47;16.20;;;14.70;;
22113;SDS011;11223;49.968;9.062;2023-05-23T07:32:13;16.47;;;14.87;;
22113;SDS011;11223;49.968;9.062;2023-05-23T07:34:39;17.63;;;15.87;;
22113;SDS011;11223;49.968;9.062;2023-05-23T07:37:05;15.75;;;14.35;;
22113;SDS011;11223;49.968;9.062;2023-05-23T07:39:30;14.53;;;13.13;;
22113;SDS011;11223;49.968;9.062;2023-05-23T07:41:56;13.30;;;12.10;;
22113;SDS011;11223;49.968;9.062;2023-05-23T07:44:22;13.83;;;12.57;;
22113;SDS011;11223;49.968;9.062;2023-05-23T07:46:47;12.00;;;10.27;;
22113;SDS011;11223;49.968;9.062;2023-05-23T07:49:13;15.00;;;13.60;;
22113;SDS011;11223;49.968;9.062;2023-05-23T07:51:38;11.30;;;10.30;;
22113;SDS011;11223;49.968;9.062;2023-05-23T07:54:05;11.45;;;10.45;;
22113;SDS011;11223;49.968;9.062;2023-05-23T07:56:31;9.90;;;9.00;;
22113;SDS011;11223;49.968;9.062;2023-05-23T07:58:56;11.07;;;10.07;;
22113;SDS011;11223;49.968;9.062;2023-05-23T08:01:22;10.17;;;9.27;;
22113;SDS011;11223;49.968;9.062;2023-05-23T08:03:48;9.55;;;8.65;;
22113;SDS011;11223;49.968;9.062;2023-05-23T08:06:14;13.20;;;7.60;;
22113;SDS011;11223;49.968;9.062;2023-05-23T08:08:40;7.57;;;6.87;;
22113;SDS011;11223;49.968;9.062;2023-05-23T08:11:07;9.45;;;7.50;;
22113;SDS011;11223;49.968;9.062;2023-05-23T08:13:33;7.87;;;7.17;;
22113;SDS011;11223;49.968;9.062;2023-05-23T08:15:59;7.67;;;7.03;;
22113;SDS011;11223;49.968;9.062;2023-05-23T08:18:24;7.33;;;6.70;;
22113;SDS011;11223;49.968;9.062;2023-05-23T08:20:50;7.07;;;6.47;;
22113;SDS011;11223;49.968;9.062;2023-05-23T08:23:15;7.07;;;6.43;;
22113;SDS011;11223;49.968;9.062;2023-05-23T08:25:42;7.85;;;7.05;;
22113;SDS011;11223;49.968;9.062;2023-05-23T08:28:07;7.90;;;7.10;;
22113;SDS011;11223;49.968;9.062;2023-05-23T08:30:33;8.23;;;6.60;;
22113;SDS011;11223;49.968;9.062;2023-05-23T08:32:58;7.87;;;7.10;;
22113;SDS011;11223;49.968;9.062;2023-05-23T08:35:24;6.63;;;6.03;;
22113;SDS011;11223;49.968;9.062;2023-05-23T08:37:50;6.25;;;5.75;;
22113;SDS011;11223;49.968;9.062;2023-05-23T08:40:19;7.77;;;7.10;;
22113;SDS011;11223;49.968;9.062;2023-05-23T08:42:46;7.90;;;7.20;;
22113;SDS011;11223;49.968;9.062;2023-05-23T08:45:13;7.43;;;6.82;;
22113;SDS011;11223;49.968;9.062;2023-05-23T08:47:41;6.85;;;6.25;;
22113;SDS011;11223;49.968;9.062;2023-05-23T08:50:11;6.47;;;5.97;;
22113;SDS011;11223;49.968;9.062;2023-05-23T08:52:42;5.57;;;5.07;;
22113;SDS011;11223;49.968;9.062;2023-05-23T08:55:11;6.38;;;5.88;;
22113;SDS011;11223;49.968;9.062;2023-05-23T08:57:37;6.40;;;5.90;;
22113;SDS011;11223;49.968;9.062;2023-05-23T09:00:07;5.85;;;5.35;;
22113;SDS011;11223;49.968;9.062;2023-05-23T09:02:38;6.53;;;5.93;;
22113;SDS011;11223;49.968;9.062;2023-05-23T09:05:07;6.25;;;5.65;;
22113;SDS011;11223;49.968;9.062;2023-05-23T09:07:33;6.07;;;5.63;;
22113;SDS011;11223;49.968;9.062;2023-05-23T09:10:00;5.35;;;4.95;;
22113;SDS011;11223;49.968;9.062;2023-05-23T09:12:27;5.68;;;5.13;;
22113;SDS011;11223;49.968;9.062;2023-05-23T09:14:53;6.75;;;6.15;;
22113;SDS011;11223;49.968;9.062;2023-05-23T09:17:19;5.77;;;5.37;;
22113;SDS011;11223;49.968;9.062;2023-05-23T09:19:46;5.00;;;4.60;;
22113;SDS011;11223;49.968;9.062;2023-05-23T09:22:12;4.90;;;4.50;;
22113;SDS011;11223;49.968;9.062;2023-05-23T09:24:37;6.57;;;4.80;;
22113;SDS011;11223;49.968;9.062;2023-05-23T09:27:04;5.20;;;4.80;;
22113;SDS011;11223;49.968;9.062;2023-05-23T09:29:31;4.57;;;4.18;;
22113;SDS011;11223;49.968;9.062;2023-05-23T09:32:09;4.77;;;4.37;;
22113;SDS011;11223;49.968;9.062;2023-05-23T09:34:39;4.38;;;4.03;;
22113;SDS011;11223;49.968;9.062;2023-05-23T09:37:15;4.65;;;4.35;;
22113;SDS011;11223;49.968;9.062;2023-05-23T09:39:44;5.70;;;5.20;;
22113;SDS011;11223;49.968;9.062;2023-05-23T09:42:11;4.55;;;4.20;;
22113;SDS011;11223;49.968;9.062;2023-05-23T09:44:42;4.72;;;4.32;;
22113;SDS011;11223;49.968;9.062;2023-05-23T09:47:07;5.13;;;4.63;;
22113;SDS011;11223;49.968;9.062;2023-05-23T09:49:33;5.27;;;4.77;;
22113;SDS011;11223;49.968;9.062;2023-05-23T09:51:59;4.87;;;4.47;;
22113;SDS011;11223;49.968;9.062;2023-05-23T09:54:25;4.20;;;3.90;;
22113;SDS011;11223;49.968;9.062;2023-05-23T09:56:52;4.30;;;3.90;;
22113;SDS011;11223;49.968;9.062;2023-05-23T09:59:20;4.47;;;4.18;;
22113;SDS011;11223;49.968;9.062;2023-05-23T10:01:48;5.00;;;4.60;;
22113;SDS011;11223;49.968;9.062;2023-05-23T10:04:18;7.32;;;4.13;;
22113;SDS011;11223;49.968;9.062;2023-05-23T10:06:49;4.15;;;3.65;;
22113;SDS011;11223;49.968;9.062;2023-05-23T10:09:18;4.45;;;4.13;;
22113;SDS011;11223;49.968;9.062;2023-05-23T10:14:22;4.03;;;3.72;;
22113;SDS011;11223;49.968;9.062;2023-05-23T10:19:26;3.90;;;3.55;;
22113;SDS011;11223;49.968;9.062;2023-05-23T10:22:12;4.38;;;3.97;;
22113;SDS011;11223;49.968;9.062;2023-05-23T10:24:39;4.47;;;4.07;;
22113;SDS011;11223;49.968;9.062;2023-05-23T10:27:06;4.00;;;3.70;;
22113;SDS011;11223;49.968;9.062;2023-05-23T10:29:32;4.22;;;3.90;;
22113;SDS011;11223;49.968;9.062;2023-05-23T10:31:59;4.72;;;4.32;;
22113;SDS011;11223;49.968;9.062;2023-05-23T10:34:40;4.78;;;4.45;;
22113;SDS011;11223;49.968;9.062;2023-05-23T10:40:29;3.92;;;3.63;;
22113;SDS011;11223;49.968;9.062;2023-05-23T10:43:03;4.40;;;4.10;;
22113;SDS011;11223;49.968;9.062;2023-05-23T10:45:48;5.20;;;4.70;;
22113;SDS011;11223;49.968;9.062;2023-05-23T10:48:19;5.90;;;4.32;;
22113;SDS011;11223;49.968;9.062;2023-05-23T10:51:02;4.38;;;4.05;;
22113;SDS011;11223;49.968;9.062;2023-05-23T10:53:52;5.28;;;4.88;;
22113;SDS011;11223;49.968;9.062;2023-05-23T10:56:19;4.22;;;3.92;;
22113;SDS011;11223;49.968;9.062;2023-05-23T10:58:54;3.88;;;3.58;;
22113;SDS011;11223;49.968;9.062;2023-05-23T11:01:21;4.85;;;3.60;;
22113;SDS011;11223;49.968;9.062;2023-05-23T11:03:49;3.70;;;3.40;;
22113;SDS011;11223;49.968;9.062;2023-05-23T11:09:15;4.07;;;3.72;;
22113;SDS011;11223;49.968;9.062;2023-05-23T11:16:58;3.42;;;3.13;;
22113;SDS011;11223;49.968;9.062;2023-05-23T11:19:26;3.35;;;3.05;;
22113;SDS011;11223;49.968;9.062;2023-05-23T11:22:00;3.45;;;3.20;;
22113;SDS011;11223;49.968;9.062;2023-05-23T11:27:11;2.97;;;2.78;;
22113;SDS011;11223;49.968;9.062;2023-05-23T11:29:37;3.43;;;3.17;;
22113;SDS011;11223;49.968;9.062;2023-05-23T11:32:09;3.50;;;2.63;;
22113;SDS011;11223;49.968;9.062;2023-05-23T11:34:38;2.95;;;2.75;;
22113;SDS011;11223;49.968;9.062;2023-05-23T11:37:05;2.78;;;2.55;;
22113;SDS011;11223;49.968;9.062;2023-05-23T11:39:31;5.37;;;3.03;;
22113;SDS011;11223;49.968;9.062;2023-05-23T11:42:00;3.67;;;3.37;;
22113;SDS011;11223;49.968;9.062;2023-05-23T11:44:26;3.88;;;3.47;;
22113;SDS011;11223;49.968;9.062;2023-05-23T11:47:02;3.53;;;2.67;;
22113;SDS011;11223;49.968;9.062;2023-05-23T11:49:30;2.60;;;2.40;;
22113;SDS011;11223;49.968;9.062;2023-05-23T11:52:00;3.08;;;2.30;;
22113;SDS011;11223;49.968;9.062;2023-05-23T11:54:26;2.40;;;2.20;;
22113;SDS011;11223;49.968;9.062;2023-05-23T11:56:53;2.83;;;2.63;;
22113;SDS011;11223;49.968;9.062;2023-05-23T11:59:20;2.78;;;2.58;;
22113;SDS011;11223;49.968;9.062;2023-05-23T12:01:46;2.55;;;2.35;;
22113;SDS011;11223;49.968;9.062;2023-05-23T12:04:12;3.00;;;2.37;;
22113;SDS011;11223;49.968;9.062;2023-05-23T12:06:38;2.80;;;2.60;;
22113;SDS011;11223;49.968;9.062;2023-05-23T12:09:05;2.75;;;2.30;;
22113;SDS011;11223;49.968;9.062;2023-05-23T12:11:32;2.65;;;2.17;;
22113;SDS011;11223;49.968;9.062;2023-05-23T12:13:58;3.05;;;2.40;;
22113;SDS011;11223;49.968;9.062;2023-05-23T12:16:27;3.00;;;2.35;;
22113;SDS011;11223;49.968;9.062;2023-05-23T12:18:53;5.07;;;3.00;;
22113;SDS011;11223;49.968;9.062;2023-05-23T12:21:22;2.50;;;2.30;;
22113;SDS011;11223;49.968;9.062;2023-05-23T12:23:50;2.60;;;2.40;;
22113;SDS011;11223;49.968;9.062;2023-05-23T12:26:15;2.07;;;1.93;;
22113;SDS011;11223;49.968;9.062;2023-05-23T12:28:42;2.60;;;2.40;;
22113;SDS011;11223;49.968;9.062;2023-05-23T12:31:11;2.30;;;2.10;;
22113;SDS011;11223;49.968;9.062;2023-05-23T12:33:42;2.50;;;2.30;;
22113;SDS011;11223;49.968;9.062;2023-05-23T12:36:09;1.95;;;1.85;;
22113;SDS011;11223;49.968;9.062;2023-05-23T12:38:35;2.85;;;2.60;;
22113;SDS011;11223;49.968;9.062;2023-05-23T12:43:48;3.38;;;2.15;;
22113;SDS011;11223;49.968;9.062;2023-05-23T12:46:15;2.40;;;2.20;;
22113;SDS011;11223;49.968;9.062;2023-05-23T12:48:41;2.60;;;2.30;;
22113;SDS011;11223;49.968;9.062;2023-05-23T12:51:06;3.50;;;3.20;;
22113;SDS011;11223;49.968;9.062;2023-05-23T12:53:32;3.63;;;2.30;;
22113;SDS011;11223;49.968;9.062;2023-05-23T12:55:58;3.03;;;2.10;;
22113;SDS011;11223;49.968;9.062;2023-05-23T12:58:24;5.00;;;2.00;;
22113;SDS011;11223;49.968;9.062;2023-05-23T13:00:50;2.70;;;1.83;;
22113;SDS011;11223;49.968;9.062;2023-05-23T13:03:15;2.60;;;2.00;;
22113;SDS011;11223;49.968;9.062;2023-05-23T13:05:41;2.75;;;2.22;;
22113;SDS011;11223;49.968;9.062;2023-05-23T13:08:07;1.87;;;1.73;;
22113;SDS011;11223;49.968;9.062;2023-05-23T13:10:32;1.77;;;1.67;;
22113;SDS011;11223;49.968;9.062;2023-05-23T13:12:58;2.00;;;1.80;;
22113;SDS011;11223;49.968;9.062;2023-05-23T13:15:24;1.70;;;1.60;;
22113;SDS011;11223;49.968;9.062;2023-05-23T13:17:50;1.70;;;1.60;;
22113;SDS011;11223;49.968;9.062;2023-05-23T13:20:16;2.10;;;1.90;;
22113;SDS011;11223;49.968;9.062;2023-05-23T13:22:41;2.07;;;1.83;;
22113;SDS011;11223;49.968;9.062;2023-05-23T13:25:07;2.37;;;1.93;;
22113;SDS011;11223;49.968;9.062;2023-05-23T13:27:33;1.80;;;1.70;;
22113;SDS011;11223;49.968;9.062;2023-05-23T13:29:58;2.37;;;1.77;;
22113;SDS011;11223;49.968;9.062;2023-05-23T13:32:24;1.50;;;1.30;;
22113;SDS011;11223;49.968;9.062;2023-05-23T13:34:50;1.53;;;1.43;;
22113;SDS011;11223;49.968;9.062;2023-05-23T13:37:16;1.57;;;1.40;;
22113;SDS011;11223;49.968;9.062;2023-05-23T13:39:41;1.93;;;1.80;;
22113;SDS011;11223;49.968;9.062;2023-05-23T13:42:07;1.60;;;1.50;;
22113;SDS011;11223;49.968;9.062;2023-05-23T13:44:33;1.40;;;1.30;;
22113;SDS011;11223;49.968;9.062;2023-05-23T13:47:08;1.73;;;1.40;;
22113;SDS011;11223;49.968;9.062;2023-05-23T13:49:35;1.30;;;1.20;;
22113;SDS011;11223;49.968;9.062;2023-05-23T13:52:01;1.43;;;1.33;;
22113;SDS011;11223;49.968;9.062;2023-05-23T13:54:26;1.30;;;1.20;;
22113;SDS011;11223;49.968;9.062;2023-05-23T13:56:52;1.50;;;1.30;;
22113;SDS011;11223;49.968;9.062;2023-05-23T13:59:17;0.87;;;0.83;;
22113;SDS011;11223;49.968;9.062;2023-05-23T14:01:45;1.83;;;1.20;;
22113;SDS011;11223;49.968;9.062;2023-05-23T14:04:11;2.55;;;1.15;;
22113;SDS011;11223;49.968;9.062;2023-05-23T14:06:37;1.07;;;1.00;;
22113;SDS011;11223;49.968;9.062;2023-05-23T14:09:03;1.70;;;1.20;;
22113;SDS011;11223;49.968;9.062;2023-05-23T14:11:30;1.77;;;1.50;;
22113;SDS011;11223;49.968;9.062;2023-05-23T14:13:56;1.63;;;1.50;;
22113;SDS011;11223;49.968;9.062;2023-05-23T14:16:22;1.40;;;1.30;;
22113;SDS011;11223;49.968;9.062;2023-05-23T14:18:48;1.30;;;1.20;;
22113;SDS011;11223;49.968;9.062;2023-05-23T14:21:13;1.27;;;1.17;;
22113;SDS011;11223;49.968;9.062;2023-05-23T14:23:39;1.40;;;1.23;;
22113;SDS011;11223;49.968;9.062;2023-05-23T14:26:05;0.80;;;0.80;;
22113;SDS011;11223;49.968;9.062;2023-05-23T14:28:31;1.70;;;1.57;;
22113;SDS011;11223;49.968;9.062;2023-05-23T14:30:56;1.27;;;1.17;;
22113;SDS011;11223;49.968;9.062;2023-05-23T14:33:23;1.27;;;1.00;;
22113;SDS011;11223;49.968;9.062;2023-05-23T14:35:49;1.27;;;1.17;;
22113;SDS011;11223;49.968;9.062;2023-05-23T14:38:15;1.40;;;1.30;;
22113;SDS011;11223;49.968;9.062;2023-05-23T14:40:41;1.13;;;1.07;;
22113;SDS011;11223;49.968;9.062;2023-05-23T14:43:06;1.17;;;1.07;;
22113;SDS011;11223;49.968;9.062;2023-05-23T14:45:32;1.43;;;1.33;;
22113;SDS011;11223;49.968;9.062;2023-05-23T14:47:57;2.47;;;1.43;;
22113;SDS011;11223;49.968;9.062;2023-05-23T14:50:24;1.47;;;1.37;;
22113;SDS011;11223;49.968;9.062;2023-05-23T14:52:50;2.83;;;1.35;;
22113;SDS011;11223;49.968;9.062;2023-05-23T14:55:16;2.00;;;1.70;;
22113;SDS011;11223;49.968;9.062;2023-05-23T14:57:41;2.27;;;2.07;;
22113;SDS011;11223;49.968;9.062;2023-05-23T15:00:07;2.17;;;2.00;;
22113;SDS011;11223;49.968;9.062;2023-05-23T15:02:35;2.97;;;1.60;;